Time;durP1;ratioP1;P1;durP2;ratioP2;P2;SDS_P1;SDS_P2;PMS_P1;PMS_P2;Temp;Humidity;BMP_temperature;BMP_pressure;BME280_temperature;BME280_humidity;BME280_pressure;Samples;Min_cycle;Max_cycle;Signal;HPM_P1;HPM_P2
2023/01/10 00:01:47;;;;;;;1999.90;999.90;;;;;;;4.40;100.00;94212.53;5010419;28;20195;-79
2023/01/10 00:04:13;;;;;;;1999.90;999.90;;;;;;;4.43;100.00;94184.72;5009855;28;20318;-82
2023/01/10 00:06:38;;;;;;;1999.90;999.90;;;;;;;4.42;100.00;94173.16;5010943;28;20188;-81
2023/01/10 00:09:03;;;;;;;1999.90;999.90;;;;;;;4.42;100.00;94161.56;5009834;28;20218;-80
2023/01/10 00:14:13;;;;;;;1999.90;999.90;;;;;;;4.42;100.00;94137.25;5027007;28;20189;-81
2023/01/10 00:16:39;;;;;;;1999.90;999.90;;;;;;;4.43;100.00;94131.44;5009442;28;20215;-79
2023/01/10 00:19:05;;;;;;;1999.90;999.90;;;;;;;4.47;100.00;94129.50;5009323;28;20199;-79
2023/01/10 00:21:31;;;;;;;1999.90;999.90;;;;;;;4.54;100.00;94131.38;5009100;28;20378;-81
2023/01/10 00:26:40;;;;;;;1999.90;999.90;;;;;;;4.52;100.00;94133.72;5026770;28;20238;-82
2023/01/10 00:29:06;;;;;;;1999.90;999.90;;;;;;;4.51;100.00;94141.03;5009007;28;20274;-79
2023/01/10 00:31:32;;;;;;;1999.90;999.90;;;;;;;4.56;100.00;94150.69;5008994;28;20199;-77
2023/01/10 00:33:57;;;;;;;1999.90;999.90;;;;;;;4.62;100.00;94165.31;5009205;28;20195;-79
2023/01/10 00:36:23;;;;;;;1999.90;999.90;;;;;;;4.62;100.00;94168.03;5009064;28;20198;-79
2023/01/10 00:38:48;;;;;;;1999.90;999.90;;;;;;;4.61;100.00;94169.97;5008904;28;20183;-80
2023/01/10 00:43:58;;;;;;;1999.90;999.90;;;;;;;4.63;100.00;94183.09;5026778;28;20190;-81
2023/01/10 00:46:24;;;;;;;1999.90;999.90;;;;;;;4.61;100.00;94196.22;5009246;28;20179;-82
2023/01/10 00:48:49;;;;;;;1999.90;999.90;;;;;;;4.70;100.00;94199.25;5009062;28;20184;-79
2023/01/10 00:51:14;;;;;;;1999.90;999.90;;;;;;;4.79;100.00;94213.09;5009024;28;20279;-79
2023/01/10 00:53:40;;;;;;;1999.90;999.90;;;;;;;4.84;100.00;94220.81;5010154;28;20199;-78
2023/01/10 00:56:05;;;;;;;1999.90;999.90;;;;;;;4.81;100.00;94235.88;5009269;28;20198;-76
2023/01/10 00:58:31;;;;;;;1999.90;999.90;;;;;;;4.78;100.00;94238.59;5008640;28;20208;-78
2023/01/10 01:00:57;;;;;;;1999.90;999.90;;;;;;;4.79;100.00;94250.97;5008595;28;20214;-76
2023/01/10 01:03:22;;;;;;;1999.90;999.90;;;;;;;4.82;100.00;94266.41;5008665;28;20195;-78
2023/01/10 01:05:48;;;;;;;1999.90;999.90;;;;;;;4.66;100.00;94276.91;5008398;28;20242;-77
2023/01/10 01:08:15;;;;;;;1999.90;999.90;;;;;;;4.81;100.00;94279.13;5008382;28;20206;-74
2023/01/10 01:10:41;;;;;;;1999.90;999.90;;;;;;;4.78;100.00;94288.06;5008451;28;20267;-79
2023/01/10 01:13:22;;;;;;;1999.90;999.90;;;;;;;4.71;100.00;94296.19;5008890;28;20500;-80
2023/01/10 01:15:48;;;;;;;1999.90;999.90;;;;;;;4.70;100.00;94312.81;5009180;28;20238;-74
2023/01/10 01:18:16;;;;;;;1999.90;999.90;;;;;;;4.62;100.00;94312.06;5008561;28;20206;-77
2023/01/10 01:20:44;;;;;;;1999.90;999.90;;;;;;;4.69;100.00;94305.84;5008089;28;20207;-77
2023/01/10 01:23:10;;;;;;;1999.90;999.90;;;;;;;4.66;100.00;94312.81;5008070;28;20266;-75
2023/01/10 01:25:35;;;;;;;1999.90;999.90;;;;;;;4.67;100.00;94305.47;5008524;28;20198;-75
2023/01/10 01:28:01;;;;;;;1999.90;999.90;;;;;;;4.61;100.00;94304.34;5008118;28;20211;-76
2023/01/10 01:30:26;;;;;;;1999.90;999.90;;;;;;;4.77;100.00;94296.56;5008251;28;20187;-78
2023/01/10 01:32:51;;;;;;;1999.90;999.90;;;;;;;4.77;100.00;94291.91;5007956;28;20179;-75
2023/01/10 01:35:17;;;;;;;1999.90;999.90;;;;;;;4.72;100.00;94305.84;5008170;28;20194;-79
2023/01/10 01:37:43;;;;;;;1999.90;999.90;;;;;;;4.72;100.00;94305.06;5008194;28;20215;-81
2023/01/10 01:40:17;;;;;;;1999.90;999.90;;;;;;;4.69;100.00;94301.22;5008308;28;20200;-76
2023/01/10 01:42:44;;;;;;;1999.90;999.90;;;;;;;4.67;100.00;94319.00;5007838;28;20167;-77
2023/01/10 01:45:13;;;;;;;1999.90;999.90;;;;;;;4.66;100.00;94322.88;5008357;28;20274;-76
2023/01/10 01:47:47;;;;;;;1999.90;999.90;;;;;;;4.68;100.00;94328.63;5008532;28;20223;-79
2023/01/10 01:50:42;;;;;;;1999.90;999.90;;;;;;;4.68;100.00;94332.13;5008523;28;20190;-79
2023/01/10 01:53:19;;;;;;;1999.90;999.90;;;;;;;4.66;100.00;94339.09;4997006;28;20199;-81
2023/01/10 01:55:46;;;;;;;1999.90;999.90;;;;;;;4.70;100.00;94350.66;5008145;28;20194;-78
2023/01/10 01:58:17;;;;;;;1999.90;999.90;;;;;;;4.72;100.00;94369.94;5007532;28;20507;-80
2023/01/10 02:00:43;;;;;;;1999.90;999.90;;;;;;;4.72;100.00;94369.94;5007357;28;20171;-80
2023/01/10 02:03:10;;;;;;;1999.90;999.90;;;;;;;4.68;100.00;94380.00;5007997;28;20217;-80
2023/01/10 02:05:39;;;;;;;1999.90;999.90;;;;;;;4.73;100.00;94398.56;5007907;28;20191;-79
2023/01/10 02:08:05;;;;;;;1999.90;999.90;;;;;;;4.74;100.00;94402.78;5007603;28;20202;-80
2023/01/10 02:10:47;;;;;;;1999.90;999.90;;;;;;;4.77;100.00;94412.84;5007493;28;20195;-78
2023/01/10 02:13:14;;;;;;;1999.90;999.90;;;;;;;4.66;100.00;94420.19;5008291;28;20191;-77
2023/01/10 02:15:40;;;;;;;1999.90;999.90;;;;;;;4.65;100.00;94421.34;5007510;28;20198;-78
2023/01/10 02:18:06;;;;;;;1999.90;999.90;;;;;;;4.65;100.00;94440.25;5008079;28;20213;-77
2023/01/10 02:20:59;;;;;;;1999.90;999.90;;;;;;;4.64;100.00;94449.53;5007445;28;20233;-77
2023/01/10 02:23:42;;;;;;;1999.90;999.90;;;;;;;4.62;100.00;94452.63;5007799;28;20214;-78
2023/01/10 02:26:28;;;;;;;1999.90;999.90;;;;;;;4.69;100.00;94468.06;5007990;28;20187;-81
2023/01/10 02:29:03;;;;;;;1999.90;999.90;;;;;;;4.67;100.00;94475.81;5007541;28;20209;-80
2023/01/10 02:31:53;;;;;;;1999.90;999.90;;;;;;;4.65;100.00;94491.63;5007540;28;20187;-80
2023/01/10 02:34:31;;;;;;;1999.90;999.90;;;;;;;4.64;100.00;94492.78;5007952;28;20195;-80
2023/01/10 02:36:56;;;;;;;1999.90;999.90;;;;;;;4.64;100.00;94511.72;5007062;28;20206;-79
2023/01/10 02:39:43;;;;;;;1999.90;999.90;;;;;;;4.61;100.00;94512.47;5007454;28;20245;-79
2023/01/10 02:42:26;;;;;;;1999.90;999.90;;;;;;;4.66;100.00;94528.34;5007610;28;20201;-79
2023/01/10 02:45:22;;;;;;;1999.90;999.90;;;;;;;4.64;100.00;94530.63;5007315;28;20191;-77
2023/01/10 02:47:48;;;;;;;1999.90;999.90;;;;;;;4.67;100.00;94533.34;4973421;28;20282;-82
2023/01/10 02:50:35;;;;;;;1999.90;999.90;;;;;;;4.64;100.00;94544.16;5007528;28;20391;-81
2023/01/10 02:53:05;;;;;;;1999.90;999.90;;;;;;;4.72;100.00;94549.19;5007111;28;20497;-81
2023/01/10 02:55:50;;;;;;;1999.90;999.90;;;;;;;4.70;100.00;94554.19;5007133;28;20225;-81
2023/01/10 02:58:43;;;;;;;1999.90;999.90;;;;;;;4.65;100.00;94559.22;5007281;28;20289;-81
2023/01/10 03:01:34;;;;;;;1999.90;999.90;;;;;;;4.59;100.00;94577.00;5007275;28;20201;-81
2023/01/10 03:04:27;;;;;;;1999.90;999.90;;;;;;;4.59;100.00;94569.63;5007217;28;20192;-79
2023/01/10 03:07:08;;;;;;;1999.90;999.90;;;;;;;4.60;100.00;94570.41;5006809;28;20220;-78
2023/01/10 03:09:53;;;;;;;1999.90;999.90;;;;;;;4.58;100.00;94597.03;5007179;28;20194;-78
2023/01/10 03:12:40;;;;;;;1999.90;999.90;;;;;;;4.56;100.00;94610.19;5007792;28;20202;-77
2023/01/10 03:15:07;;;;;;;1999.90;999.90;;;;;;;4.55;100.00;94608.66;5010935;28;20198;-85
2023/01/10 03:17:34;;;;;;;1999.90;999.90;;;;;;;4.56;100.00;94626.41;5010434;28;20203;-81
2023/01/10 03:20:04;;;;;;;1999.90;999.90;;;;;;;4.54;100.00;94639.53;5010136;28;20282;-79
2023/01/10 03:22:32;;;;;;;1999.90;999.90;;;;;;;4.47;100.00;94644.91;5011143;28;20299;-79
2023/01/10 03:25:00;;;;;;;1999.90;999.90;;;;;;;4.57;100.00;94654.97;5010856;28;20218;-79
2023/01/10 03:27:36;;;;;;;1999.90;999.90;;;;;;;4.59;100.00;94658.09;5010859;28;20195;-79
2023/01/10 03:30:06;;;;;;;1999.90;999.90;;;;;;;4.55;100.00;94678.94;5010417;28;20202;-84
2023/01/10 03:32:32;;;;;;;1999.90;999.90;;;;;;;4.52;100.00;94690.50;5010193;28;20258;-84
2023/01/10 03:35:02;;;;;;;1999.90;999.90;;;;;;;4.52;100.00;94701.31;5010336;28;20463;-83
2023/01/10 03:37:44;;;;;;;1999.90;999.90;;;;;;;4.54;100.00;94707.88;5010631;28;20191;-83
2023/01/10 03:40:29;;;;;;;1999.90;999.90;;;;;;;4.58;100.00;94705.19;5010337;28;20226;-83
2023/01/10 03:45:57;;;;;;;1999.90;999.90;;;;;;;4.70;100.00;94727.22;5027645;28;20194;-82
2023/01/10 03:48:27;;;;;;;1999.90;999.90;;;;;;;4.66;100.00;94736.50;5010487;28;20183;-82
2023/01/10 03:50:53;;;;;;;1999.90;999.90;;;;;;;4.72;100.00;94743.06;5009708;28;20230;-81
2023/01/10 03:53:18;;;;;;;1999.90;999.90;;;;;;;4.75;100.00;94755.84;5010062;28;20233;-80
2023/01/10 03:55:44;;;;;;;1999.90;999.90;;;;;;;4.73;100.00;94760.88;5010300;28;20188;-81
2023/01/10 03:58:09;;;;;;;1999.90;999.90;;;;;;;4.73;100.00;94766.28;5009943;28;20235;-79
2023/01/10 04:00:35;;;;;;;1999.90;999.90;;;;;;;4.80;100.00;94771.69;5009656;28;20487;-79
2023/01/10 04:03:03;;;;;;;1999.90;999.90;;;;;;;4.78;100.00;94779.41;5009510;28;20192;-78
2023/01/10 04:05:28;;;;;;;1999.90;999.90;;;;;;;4.82;100.00;94791.03;5009533;28;20232;-80
2023/01/10 04:07:54;;;;;;;1999.90;999.90;;;;;;;4.79;100.00;94791.78;5009590;28;20195;-80
2023/01/10 04:10:20;;;;;;;1999.90;999.90;;;;;;;4.84;100.00;94799.53;5009940;28;20194;-80
2023/01/10 04:12:45;;;;;;;1999.90;999.90;;;;;;;4.87;100.00;94804.16;5010152;28;20183;-79
2023/01/10 04:15:11;;;;;;;1999.90;999.90;;;;;;;4.87;100.00;94804.16;5009590;28;20183;-79
2023/01/10 04:17:36;;;;;;;1999.90;999.90;;;;;;;4.88;100.00;94811.16;5009441;28;20279;-79
2023/01/10 04:20:01;;;;;;;1999.90;999.90;;;;;;;4.89;100.00;94818.88;5009154;28;20207;-79
2023/01/10 04:22:27;;;;;;;1999.90;999.90;;;;;;;4.92;100.00;94811.94;5009684;28;20246;-74
2023/01/10 04:24:53;;;;;;;1999.90;999.90;;;;;;;4.87;100.00;94836.63;5009225;28;20266;-74
2023/01/10 04:27:19;;;;;;;1999.90;999.90;;;;;;;4.84;100.00;94848.22;5009670;28;20190;-75
2023/01/10 04:29:45;;;;;;;1999.90;999.90;;;;;;;4.88;100.00;94852.47;5008855;28;20195;-80
2023/01/10 04:32:10;;;;;;;1999.90;999.90;;;;;;;4.86;100.00;94862.13;5008950;28;20218;-72
2023/01/10 04:34:36;;;;;;;1999.90;999.90;;;;;;;4.80;100.00;94866.34;5009058;28;20204;-75
2023/01/10 04:37:01;;;;;;;1999.90;999.90;;;;;;;4.79;100.00;94856.69;5008998;28;20207;-75
2023/01/10 04:39:26;;;;;;;1999.90;999.90;;;;;;;4.76;100.00;94852.03;5008872;28;20191;-74
2023/01/10 04:41:52;;;;;;;1999.90;999.90;;;;;;;4.71;100.00;94841.59;5009369;28;20194;-74
2023/01/10 04:44:17;;;;;;;1999.90;999.90;;;;;;;4.73;100.00;94825.78;5009004;28;20194;-76
2023/01/10 04:46:42;;;;;;;1999.90;999.90;;;;;;;4.65;100.00;94813.34;5008974;28;20199;-74
2023/01/10 04:49:09;;;;;;;1999.90;999.90;;;;;;;4.68;100.00;94815.28;5009012;28;20246;-74
2023/01/10 04:51:34;;;;;;;1999.90;999.90;;;;;;;4.67;100.00;94792.13;5008625;28;20222;-76
2023/01/10 04:54:00;;;;;;;1999.90;999.90;;;;;;;4.68;100.00;94763.94;5008794;28;20167;-73
2023/01/10 04:56:25;;;;;;;1999.90;999.90;;;;;;;4.68;100.00;94755.81;5008687;28;20194;-73
2023/01/10 04:58:50;;;;;;;1999.90;999.90;;;;;;;4.63;100.00;94746.13;5009240;28;20199;-72
2023/01/10 05:01:22;;;;;;;1999.90;999.90;;;;;;;4.67;100.00;94724.53;5008863;28;20195;-72
2023/01/10 05:03:48;;;;;;;1999.90;999.90;;;;;;;4.60;100.00;94724.50;5008316;28;20191;-75
2023/01/10 05:06:14;;;;;;;1999.90;999.90;;;;;;;4.66;100.00;94704.81;5008854;28;20223;-73
2023/01/10 05:08:39;;;;;;;1999.90;999.90;;;;;;;4.65;100.00;94684.34;5008413;28;20192;-75
2023/01/10 05:11:05;;;;;;;1999.90;999.90;;;;;;;4.58;100.00;94668.13;5008255;28;20267;-76
2023/01/10 05:13:30;;;;;;;1999.90;999.90;;;;;;;4.49;100.00;94648.78;5008249;28;20186;-75
2023/01/10 05:15:57;;;;;;;1999.90;999.90;;;;;;;4.52;100.00;94631.78;5008411;28;20180;-79
2023/01/10 05:18:23;;;;;;;1999.90;999.90;;;;;;;4.56;100.00;94594.75;5008168;28;20214;-74
2023/01/10 05:20:48;;;;;;;1999.90;999.90;;;;;;;4.56;100.00;94561.53;5007892;28;20198;-74
2023/01/10 05:23:14;;;;;;;1999.90;999.90;;;;;;;4.57;100.00;94547.63;5007984;28;20207;-75
2023/01/10 05:25:39;;;;;;;1999.90;999.90;;;;;;;4.51;100.00;94526.78;5007843;28;20195;-74
2023/01/10 05:28:04;;;;;;;1999.90;999.90;;;;;;;4.49;100.00;94510.16;5008253;28;20188;-74
2023/01/10 05:30:30;;;;;;;1999.90;999.90;;;;;;;4.53;100.00;94497.44;5008104;28;20226;-74
2023/01/10 05:32:55;;;;;;;1999.90;999.90;;;;;;;4.50;100.00;94484.69;5007968;28;20191;-73
2023/01/10 05:35:20;;;;;;;1999.90;999.90;;;;;;;4.40;100.00;94483.53;5007206;28;20191;-76
2023/01/10 05:37:46;;;;;;;1999.90;999.90;;;;;;;4.45;100.00;94518.28;5007630;28;20204;-80
2023/01/10 05:40:11;;;;;;;1999.90;999.90;;;;;;;4.44;100.00;94510.56;5007725;28;20186;-73
2023/01/10 05:42:37;;;;;;;1999.90;999.90;;;;;;;4.47;100.00;94509.78;5007703;28;20207;-72
2023/01/10 05:45:04;;;;;;;1999.90;999.90;;;;;;;4.47;100.00;94505.16;5008190;28;20250;-72
2023/01/10 05:47:29;;;;;;;1999.90;999.90;;;;;;;4.51;100.00;94494.34;5007236;28;20309;-71
2023/01/10 05:49:54;;;;;;;1999.90;999.90;;;;;;;4.48;100.00;94500.53;5007742;28;20183;-71
2023/01/10 05:52:20;;;;;;;1999.90;999.90;;;;;;;4.45;100.00;94502.06;5007682;28;20191;-72
2023/01/10 05:54:45;;;;;;;1999.90;999.90;;;;;;;4.47;100.00;94504.38;5007420;28;20198;-75
2023/01/10 05:57:10;;;;;;;1999.90;999.90;;;;;;;4.50;100.00;94511.72;5007057;28;20215;-75
2023/01/10 05:59:36;;;;;;;1999.90;999.90;;;;;;;4.48;100.00;94522.16;5007577;28;20195;-73
2023/01/10 06:02:01;;;;;;;1999.90;999.90;;;;;;;4.46;100.00;94529.84;5008009;28;20195;-72
2023/01/10 06:04:26;;;;;;;1999.90;999.90;;;;;;;4.52;100.00;94539.13;5007476;28;20191;-72
2023/01/10 06:06:52;;;;;;;1999.90;999.90;;;;;;;4.52;100.00;94548.00;5007449;28;20306;-72
2023/01/10 06:09:17;;;;;;;1999.90;999.90;;;;;;;4.48;100.00;94570.78;5007591;28;20215;-70
2023/01/10 06:11:42;;;;;;;1999.90;999.90;;;;;;;4.53;100.00;94583.91;5007442;28;20193;-71
2023/01/10 06:14:08;;;;;;;1999.90;999.90;;;;;;;4.54;100.00;94596.28;5007507;28;20187;-71
2023/01/10 06:16:33;;;;;;;1999.90;999.90;;;;;;;4.55;100.00;94606.69;5007424;28;20197;-70
2023/01/10 06:18:58;;;;;;;1999.90;999.90;;;;;;;4.52;100.00;94625.63;5007268;28;20230;-72
2023/01/10 06:21:24;;;;;;;1999.90;999.90;;;;;;;4.60;100.00;94640.69;5007580;28;20198;-73
2023/01/10 06:23:49;;;;;;;1999.90;999.90;;;;;;;4.54;100.00;94655.75;5007409;28;20240;-75
2023/01/10 06:26:15;;;;;;;1999.90;999.90;;;;;;;4.60;100.00;94670.44;5007245;28;20175;-78
2023/01/10 06:28:40;;;;;;;1999.90;999.90;;;;;;;4.60;100.00;94690.16;5008059;28;20259;-69
2023/01/10 06:31:06;;;;;;;1999.90;999.90;;;;;;;4.61;100.00;94699.81;5007715;28;20198;-70
2023/01/10 06:33:32;;;;;;;1999.90;999.90;;;;;;;4.62;100.00;94711.41;5007404;28;20198;-71
2023/01/10 06:35:57;;;;;;;1999.90;999.90;;;;;;;4.64;100.00;94720.66;5007285;28;20274;-70
2023/01/10 06:38:22;;;;;;;1999.90;999.90;;;;;;;4.58;100.00;94745.72;5007288;28;20233;-73
2023/01/10 06:40:48;;;;;;;1999.90;999.90;;;;;;;4.59;100.00;94777.78;5007274;28;20199;-68
2023/01/10 06:43:13;;;;;;;1999.90;999.90;;;;;;;4.62;100.00;94792.50;5007358;28;20220;-72
2023/01/10 06:45:38;;;;;;;1999.90;999.90;;;;;;;4.59;100.00;94798.66;5007158;28;20191;-73
2023/01/10 06:48:04;;;;;;;1999.90;999.90;;;;;;;4.63;100.00;94821.84;5010344;28;20198;-72
2023/01/10 06:50:30;;;;;;;1999.90;999.90;;;;;;;4.64;100.00;94833.44;5011481;28;20191;-71
2023/01/10 06:53:01;;;;;;;1999.90;999.90;;;;;;;4.64;100.00;94847.75;5010812;28;20195;-72
2023/01/10 06:55:27;;;;;;;1999.90;999.90;;;;;;;4.61;100.00;94853.91;5010608;28;20191;-73
2023/01/10 06:57:58;;;;;;;1999.90;999.90;;;;;;;4.62;100.00;94873.59;5010816;28;20273;-70
2023/01/10 07:00:26;;;;;;;1999.90;999.90;;;;;;;4.66;100.00;94880.56;5010526;28;20191;-71
2023/01/10 07:02:53;;;;;;;1999.90;999.90;;;;;;;4.68;100.00;94882.91;5010616;28;20200;-73
2023/01/10 07:05:19;;;;;;;1999.90;999.90;;;;;;;4.64;100.00;94898.31;5010931;28;20195;-69
2023/01/10 07:07:44;;;;;;;1999.90;999.90;;;;;;;4.64;100.00;94903.72;5010332;28;20199;-69
2023/01/10 07:10:10;;;;;;;1999.90;999.90;;;;;;;4.60;100.00;94913.75;5010419;28;20226;-69
2023/01/10 07:12:35;;;;;;;1999.90;999.90;;;;;;;4.59;100.00;94907.56;5010309;28;20191;-68
2023/01/10 07:15:00;;;;;;;1999.90;999.90;;;;;;;4.65;100.00;94899.88;5010845;28;20219;-72
2023/01/10 07:17:26;;;;;;;1999.90;999.90;;;;;;;4.65;100.00;94899.88;5010568;28;20261;-68
2023/01/10 07:19:51;;;;;;;1999.90;999.90;;;;;;;4.66;100.00;94912.25;5010141;28;20204;-68
2023/01/10 07:22:16;;;;;;;1999.90;999.90;;;;;;;4.63;100.00;94913.75;5010183;28;20191;-67
2023/01/10 07:24:42;;;;;;;1999.90;999.90;;;;;;;4.60;100.00;94932.69;5010106;28;20265;-73
2023/01/10 07:27:07;;;;;;;1999.90;999.90;;;;;;;4.61;100.00;94942.31;5010093;28;20199;-75
2023/01/10 07:29:33;;;;;;;1999.90;999.90;;;;;;;4.56;100.00;94956.22;5010551;28;20229;-72
2023/01/10 07:31:58;;;;;;;1999.90;999.90;;;;;;;4.61;100.00;94955.84;5010280;28;20199;-72
2023/01/10 07:34:23;;;;;;;1999.90;999.90;;;;;;;4.57;100.00;94971.28;5010119;28;20210;-73
2023/01/10 07:36:49;;;;;;;1999.90;999.90;;;;;;;4.62;100.00;94987.16;5009830;28;20203;-73
2023/01/10 07:39:14;;;;;;;1999.90;999.90;;;;;;;4.56;100.00;94994.84;5009923;28;20276;-72
2023/01/10 07:41:39;;;;;;;1999.90;999.90;;;;;;;4.55;100.00;95017.59;5009936;28;20191;-74
2023/01/10 07:44:05;;;;;;;1999.90;999.90;;;;;;;4.59;100.00;95023.81;5009728;28;20197;-74
2023/01/10 07:46:30;;;;;;;1999.90;999.90;;;;;;;4.61;100.00;95032.34;5009631;28;20319;-73
2023/01/10 07:48:55;;;;;;;1999.90;999.90;;;;;;;4.63;100.00;95027.31;5009843;28;20187;-76
2023/01/10 07:51:21;;;;;;;1999.90;999.90;;;;;;;4.67;100.00;95021.94;5009815;28;20198;-73
2023/01/10 07:53:46;;;;;;;1999.90;999.90;;;;;;;4.66;100.00;95028.53;5009995;28;20190;-72
2023/01/10 07:56:11;;;;;;;1999.90;999.90;;;;;;;4.70;100.00;95021.22;5009462;28;20194;-73
2023/01/10 07:58:37;;;;;;;1999.90;999.90;;;;;;;4.67;100.00;95017.34;5009274;28;20271;-73
2023/01/10 08:01:04;;;;;;;1999.90;999.90;;;;;;;4.65;100.00;95008.81;5009378;28;20238;-74
2023/01/10 08:03:29;;;;;;;1999.90;999.90;;;;;;;4.64;100.00;95023.47;5009408;28;20191;-72
2023/01/10 08:06:03;;;;;;;1999.90;999.90;;;;;;;4.74;100.00;95033.59;5009559;28;20198;-72
2023/01/10 08:08:29;;;;;;;1999.90;999.90;;;;;;;4.76;100.00;95041.31;5009363;28;20192;-72
2023/01/10 08:10:55;;;;;;;1999.90;999.90;;;;;;;4.81;100.00;95049.09;5009233;28;20197;-74
2023/01/10 08:13:22;;;;;;;1999.90;999.90;;;;;;;4.89;100.00;95050.72;5009502;28;20192;-74
2023/01/10 08:15:49;;;;;;;1999.90;999.90;;;;;;;4.99;100.00;95058.13;5009815;28;20191;-76
2023/01/10 08:18:15;;;;;;;1999.90;999.90;;;;;;;4.93;100.00;95078.56;5009252;28;20207;-72
2023/01/10 08:20:40;;;;;;;1999.90;999.90;;;;;;;4.96;100.00;95088.63;5009314;28;20229;-69
2023/01/10 08:23:06;;;;;;;1999.90;999.90;;;;;;;4.95;100.00;95103.31;5009291;28;20187;-69
2023/01/10 08:25:31;;;;;;;1999.90;999.90;;;;;;;4.86;100.00;95127.19;5009090;28;20175;-68
2023/01/10 08:27:57;;;;;;;1999.90;999.90;;;;;;;4.81;100.00;95130.25;5009389;28;20272;-68
2023/01/10 08:30:22;;;;;;;1999.90;999.90;;;;;;;4.88;100.00;95135.72;5009527;28;20187;-68
2023/01/10 08:32:48;;;;;;;1999.90;999.90;;;;;;;4.89;100.00;95131.88;5009073;28;20199;-69
2023/01/10 08:35:13;;;;;;;1999.90;999.90;;;;;;;4.88;100.00;95135.72;5009018;28;20187;-68
2023/01/10 08:37:39;;;;;;;1999.90;999.90;;;;;;;4.93;100.00;95132.66;5008743;28;20259;-72
2023/01/10 08:40:05;;;;;;;1999.90;999.90;;;;;;;4.89;100.00;95131.88;5009433;28;20224;-73
2023/01/10 08:42:30;;;;;;;1999.90;999.90;;;;;;;4.89;100.00;95137.28;5009000;28;20245;-69
2023/01/10 08:44:55;;;;;;;1999.90;999.90;;;;;;;4.89;100.00;95145.38;5008952;28;20193;-73
2023/01/10 08:47:21;;;;;;;1999.90;999.90;;;;;;;4.95;100.00;95146.63;5008901;28;20437;-72
2023/01/10 08:49:48;;;;;;;1999.90;999.90;;;;;;;5.07;100.00;95146.31;5008517;28;20195;-75
2023/01/10 08:52:14;;;;;;;1999.90;999.90;;;;;;;5.06;100.00;95164.47;5008556;28;20192;-71
2023/01/10 08:54:43;;;;;;;1999.90;999.90;;;;;;;5.19;100.00;95189.31;5008355;28;20187;-72
2023/01/10 08:57:08;;;;;;;1999.90;999.90;;;;;;;5.16;100.00;95203.59;5009314;28;20192;-70
2023/01/10 08:59:34;;;;;;;1999.90;999.90;;;;;;;5.21;100.00;95230.34;5009094;28;20204;-72
2023/01/10 09:01:59;;;;;;;1999.90;999.90;;;;;;;5.19;100.00;95248.88;5008798;28;20191;-70
2023/01/10 09:04:27;;;;;;;1999.90;999.90;;;;;;;5.25;100.00;95269.03;5008332;28;20187;-69
2023/01/10 09:06:53;;;;;;;1999.90;999.90;;;;;;;5.18;100.00;95301.44;5008650;28;20187;-70
2023/01/10 09:09:18;;;;;;;1999.90;999.90;;;;;;;5.20;100.00;95324.28;5008414;28;20193;-70
2023/01/10 09:11:43;;;;;;;1999.90;999.90;;;;;;;5.19;100.00;95351.72;5008399;28;20183;-68
2023/01/10 09:14:09;;;;;;;1999.90;999.90;;;;;;;5.24;100.00;95373.06;5008217;28;20195;-69
2023/01/10 09:16:34;;;;;;;1999.90;999.90;;;;;;;5.01;100.00;95392.09;5008874;28;20234;-67
2023/01/10 09:18:59;;;;;;;1999.90;999.90;;;;;;;4.94;100.00;95399.34;5008165;28;20188;-68
2023/01/10 09:21:27;;;;;;;1999.90;999.90;;;;;;;4.84;100.00;95406.16;5008270;28;20192;-68
2023/01/10 09:23:52;;;;;;;1999.90;999.90;;;;;;;4.80;100.00;95410.75;5008228;28;20194;-72
2023/01/10 09:26:17;;;;;;;1999.90;999.90;;;;;;;4.82;100.00;95391.44;5008437;28;20251;-68
2023/01/10 09:28:43;;;;;;;1999.90;999.90;;;;;;;4.61;100.00;95369.53;5008482;28;20187;-70
2023/01/10 09:31:10;;;;;;;1999.90;999.90;;;;;;;4.61;100.00;95321.63;5008456;28;20313;-69
2023/01/10 09:33:35;;;;;;;1999.90;999.90;;;;;;;4.60;100.00;95286.84;5008400;28;20298;-71
2023/01/10 09:36:01;;;;;;;1999.90;999.90;;;;;;;4.65;100.00;95257.56;5007833;28;20208;-71
2023/01/10 09:38:27;;;;;;;1999.90;999.90;;;;;;;4.66;100.00;95236.72;5008123;28;20230;-69
2023/01/10 09:41:03;;;;;;;1999.90;999.90;;;;;;;4.72;100.00;95210.88;5007947;28;20207;-73
2023/01/10 09:43:44;;;;;;;1999.90;999.90;;;;;;;4.65;100.00;95205.41;5007945;28;20203;-75
2023/01/10 09:46:24;;;;;;;1999.90;999.90;;;;;;;4.80;100.00;95204.41;5007800;28;20211;-77
2023/01/10 09:49:32;;;;;;;1999.90;999.90;;;;;;;5.10;100.00;95186.94;5007776;28;20205;-71
2023/01/10 09:51:59;;;;;;;1999.90;999.90;;;;;;;5.35;100.00;95189.88;5007541;28;20213;-72
2023/01/10 09:54:31;;;;;;;1999.90;999.90;;;;;;;5.48;100.00;95200.03;5007582;28;20210;-69
2023/01/10 09:56:59;;;;;;;1999.90;999.90;;;;;;;5.67;100.00;95210.63;5007720;28;20215;-71
2023/01/10 09:59:36;;;;;;;1999.90;999.90;;;;;;;5.94;100.00;95230.19;5007489;28;20312;-69
2023/01/10 10:02:21;;;;;;;1999.90;999.90;;;;;;;6.32;100.00;95257.53;5007966;28;20200;-70
2023/01/10 10:04:59;;;;;;;1999.90;999.90;;;;;;;6.57;100.00;95336.31;5007881;28;20205;-69
2023/01/10 10:07:25;;;;;;;1999.90;999.90;;;;;;;6.78;100.00;95394.19;5008040;28;20203;-71
2023/01/10 10:09:50;;;;;;;1999.90;999.90;;;;;;;7.13;100.00;95433.56;5007470;28;20217;-72
2023/01/10 10:12:37;;;;;;;1999.90;999.90;;;;;;;7.21;100.00;95492.94;5007465;28;20303;-72
2023/01/10 10:15:15;;;;;;;1999.90;999.90;;;;;;;7.46;100.00;95542.00;5007558;28;20208;-71
2023/01/10 10:18:18;;;;;;;1999.90;999.90;;;;;;;7.79;100.00;95599.66;5007234;28;20251;-70
2023/01/10 10:20:52;;;;;;;1999.90;999.90;;;;;;;7.55;100.00;95681.81;4972666;28;20222;-70
2023/01/10 10:23:48;;;;;;;1999.90;999.90;;;;;;;7.54;100.00;95707.41;5011314;28;20206;-71
2023/01/10 10:26:33;;;;;;;1999.90;999.90;;;;;;;7.83;100.00;95730.94;5011364;28;20202;-72
2023/01/10 10:29:53;;;;;;;1999.90;999.90;;;;;;;7.57;100.00;95728.38;5011300;28;20213;-72
2023/01/10 10:32:32;;;;;;;1999.90;999.90;;;;;;;7.86;100.00;95741.06;4983960;28;20515;-72
2023/01/10 10:35:14;;;;;;;1999.90;999.90;;;;;;;8.42;100.00;95765.94;5011348;28;20264;-74
2023/01/10 10:37:41;;;;;;;1999.90;999.90;;;;;;;8.76;100.00;95770.03;5011249;28;20218;-72
2023/01/10 10:40:13;;;;;;;1999.90;999.90;;;;;;;9.26;100.00;95790.84;5011193;28;20200;-74
2023/01/10 10:42:42;;;;;;;1999.90;999.90;;;;;;;9.57;100.00;95790.16;5010985;28;20203;-71
2023/01/10 10:45:51;;;;;;;1999.90;999.90;;;;;;;9.27;100.00;95814.22;5011310;28;20167;-73
2023/01/10 10:48:30;;;;;;;1999.90;999.90;;;;;;;8.70;100.00;95806.94;5011136;28;20228;-73
2023/01/10 10:51:02;;;;;;;1999.90;999.90;;;;;;;8.64;100.00;95813.13;5010936;28;20244;-73
2023/01/10 10:53:31;;;;;;;1999.90;999.90;;;;;;;8.20;100.00;95813.19;5010979;28;20202;-72
2023/01/10 10:55:57;;;;;;;1999.90;999.90;;;;;;;8.12;100.00;95814.28;5010774;28;20223;-72
2023/01/10 10:58:24;;;;;;;1999.90;999.90;;;;;;;7.96;100.00;95810.25;5010754;28;20211;-69
2023/01/10 11:00:50;;;;;;;1999.90;999.90;;;;;;;7.94;100.00;95815.31;5010997;28;20175;-71
2023/01/10 11:03:31;;;;;;;1999.90;999.90;;;;;;;7.98;100.00;95825.03;5011178;28;20201;-72
2023/01/10 11:05:58;;;;;;;1999.90;999.90;;;;;;;8.04;100.00;95823.53;5010861;28;20198;-71
2023/01/10 11:08:24;;;;;;;1999.90;999.90;;;;;;;7.97;100.00;95818.03;5010992;28;20215;-69
2023/01/10 11:10:54;;;;;;;1999.90;999.90;;;;;;;8.07;100.00;95830.97;5010175;28;20222;-70
2023/01/10 11:13:31;;;;;;;1999.90;999.90;;;;;;;8.06;100.00;95837.56;5010725;28;20199;-71
2023/01/10 11:15:58;;;;;;;1999.90;999.90;;;;;;;7.87;100.00;95835.03;5010368;28;20207;-72